PROFILE

 METAR AND TAF INFORMATION
ADDS - METARS form results

(0802 UTC 25 January 2022)
http://aviationweather.gov/metar/data/
 
LIMC 250750Z 34003KT 2000 BR NSC 02/01 Q1034 NOSIG
LIMC 250720Z 31004KT 2000 BR BKN020 02/01 Q1034 NOSIG
TAF LIMC 250500Z 2506/2612 VRB05KT 1500 BCFG SCT020 TEMPO 2506/2509 0600 FZFG BKN004 BECMG 2510/2512 4000 BR BECMG 2520/2522 0500 FZFG BKN004 BECMG 2608/2610 3000 BR 

 AIRPORT MAP

 RUNWAY INFORMATION
Runway 17L Runway length 12861 ft Runway width 197 ft
Runway elevation 745 ft Runway displaced threshold 3094 ft Runway heading 170
Runway 35R Runway length 12861 ft Runway width 197 ft
Runway elevation 691 ft Runway displaced threshold 0 ft Runway heading 350
Runway 17R Runway length 12861 ft Runway width 197 ft
Runway elevation 764 ft Runway displaced threshold 0 ft Runway heading 170
Runway 35L Runway length 12861 ft Runway width 197 ft
Runway elevation 696 ft Runway displaced threshold 1329 ft Runway heading 350

 AIRPORT FREQUENCIES
Type APP Name MILANO APP Frequency 132.7 MHZ
Type ATIS Name ATIS Frequency 120.025 MHZ
Type CLD Name CLNC DEL Frequency 120.9 MHZ
Type DEP Name MILANO DEP Frequency 126.75 MHZ
Type GND Name GND Frequency 121.9 MHZ
Type TWR Name TWR Frequency 119 MHZ

 AIRPORT NEAR NAVIGATION AIDS
Type VOR-DME Name Malpensa Frequency 111200 KHZ
Type NDB Name Malpensa Frequency 364 KHZ